Time;durP1;ratioP1;P1;durP2;ratioP2;P2;SDS_P1;SDS_P2;PMS_P1;PMS_P2;Temp;Humidity;BMP_temperature;BMP_pressure;BME280_temperature;BME280_humidity;BME280_pressure;Samples;Min_cycle;Max_cycle;Signal;HPM_P1;HPM_P2
2022/07/24 00:01:01;;;;;;;;;;;;;;;28.86;44.49;99870.22;4407124;32;19982;-83
2022/07/24 00:03:28;;;;;;;;;;;;;;;28.81;44.44;99872.28;4403452;32;20336;-84
2022/07/24 00:05:55;;;;;;;;;;;;;;;28.71;44.72;99867.50;4401282;32;20308;-84
2022/07/24 00:08:22;;;;;;;;;;;;;;;28.53;44.95;99857.94;4402588;32;20320;-84
2022/07/24 00:10:49;;;;;;;;;;;;;;;28.70;44.40;99855.13;4410225;32;19978;-83
2022/07/24 00:13:16;;;;;;;;;;;;;;;28.69;44.83;99856.09;4416321;32;19992;-84
2022/07/24 00:15:43;;;;;;;;;;;;;;;28.70;45.07;99865.78;4396301;32;20080;-83
2022/07/24 00:18:10;;;;;;;;;;;;;;;28.81;45.05;99881.13;4410245;32;19981;-84
2022/07/24 00:20:37;;;;;;;;;;;;;;;28.57;45.91;99883.44;4403495;32;20013;-83
2022/07/24 00:23:04;;;;;;;;;;;;;;;28.42;46.50;99881.66;4401077;32;19978;-83
2022/07/24 00:25:31;;;;;;;;;;;;;;;28.21;46.95;99895.22;4400576;32;19983;-85
2022/07/24 00:27:58;;;;;;;;;;;;;;;28.13;47.35;99892.09;4391737;32;20021;-83
2022/07/24 00:30:25;;;;;;;;;;;;;;;28.18;47.21;99894.53;4402629;32;20466;-83
2022/07/24 00:32:52;;;;;;;;;;;;;;;28.25;46.95;99902.06;4401556;32;19978;-84
2022/07/24 00:35:19;;;;;;;;;;;;;;;27.89;47.76;99894.34;4408879;32;20058;-84
2022/07/24 00:37:48;;;;;;;;;;;;;;;27.90;47.71;99895.19;4398423;32;19998;-83
2022/07/24 00:40:15;;;;;;;;;;;;;;;27.81;47.69;99901.84;4408521;32;19982;-83
2022/07/24 00:42:43;;;;;;;;;;;;;;;27.95;47.14;99899.31;4407770;32;19997;-83
2022/07/24 00:45:10;;;;;;;;;;;;;;;27.80;47.63;99901.00;4400794;32;19996;-82
2022/07/24 00:47:52;;;;;;;;;;;;;;;27.79;47.79;99899.28;4401102;32;20880;-83
2022/07/24 00:50:23;;;;;;;;;;;;;;;28.07;46.86;99894.25;4400608;32;20028;-83
2022/07/24 00:52:50;;;;;;;;;;;;;;;27.86;47.60;99896.31;4394682;32;19997;-83
2022/07/24 00:55:17;;;;;;;;;;;;;;;28.06;47.08;99896.06;4387389;32;20044;-83
2022/07/24 00:57:46;;;;;;;;;;;;;;;28.18;46.50;99890.06;4403939;32;20564;-83
2022/07/24 01:00:15;;;;;;;;;;;;;;;28.11;46.75;99891.34;4405488;32;19986;-84
2022/07/24 01:02:42;;;;;;;;;;;;;;;28.11;46.82;99883.38;4386964;32;19970;-83
2022/07/24 01:05:09;;;;;;;;;;;;;;;28.39;45.95;99876.47;4398400;32;20340;-83
2022/07/24 01:07:36;;;;;;;;;;;;;;;28.29;46.05;99871.66;4400774;32;19982;-83
2022/07/24 01:10:04;;;;;;;;;;;;;;;28.44;45.69;99874.44;4386706;32;19990;-83
2022/07/24 01:12:35;;;;;;;;;;;;;;;28.26;46.23;99874.50;4399843;32;19990;-83
2022/07/24 01:15:02;;;;;;;;;;;;;;;28.29;46.02;99860.16;4407093;32;20321;-84
2022/07/24 01:17:30;;;;;;;;;;;;;;;28.26;45.98;99871.81;4417308;32;20750;-83
2022/07/24 01:19:58;;;;;;;;;;;;;;;28.25;45.70;99875.44;4401309;32;20020;-84
2022/07/24 01:22:25;;;;;;;;;;;;;;;28.31;45.76;99868.91;4401991;32;19990;-84
2022/07/24 01:24:53;;;;;;;;;;;;;;;28.27;45.46;99872.69;4401968;32;20036;-83
2022/07/24 01:27:20;;;;;;;;;;;;;;;28.39;44.64;99871.13;4405789;32;19994;-85
2022/07/24 01:29:46;;;;;;;;;;;;;;;28.49;44.17;99875.00;4423813;32;20025;-83
2022/07/24 01:32:13;;;;;;;;;;;;;;;28.60;43.62;99877.94;4420495;32;19974;-83
2022/07/24 01:34:40;;;;;;;;;;;;;;;28.63;43.33;99864.44;4421533;32;19982;-83
2022/07/24 01:37:07;;;;;;;;;;;;;;;28.59;43.23;99868.22;4418723;32;19993;-84
2022/07/24 01:39:34;;;;;;;;;;;;;;;28.51;43.42;99865.13;4427867;32;19989;-83
2022/07/24 01:42:01;;;;;;;;;;;;;;;28.35;43.95;99854.47;4421976;32;20000;-83
2022/07/24 01:44:27;;;;;;;;;;;;;;;28.19;44.30;99846.50;4422229;32;20029;-84
2022/07/24 01:46:54;;;;;;;;;;;;;;;28.23;44.10;99856.03;4411340;32;19997;-83
2022/07/24 01:49:22;;;;;;;;;;;;;;;28.24;44.25;99857.75;4422056;32;20350;-83
2022/07/24 01:51:49;;;;;;;;;;;;;;;28.27;44.57;99857.59;4427295;32;19974;-83
2022/07/24 01:54:16;;;;;;;;;;;;;;;28.29;44.59;99871.66;4420378;32;19982;-84
2022/07/24 01:56:43;;;;;;;;;;;;;;;28.47;44.14;99874.25;4420127;32;19973;-83
2022/07/24 01:59:10;;;;;;;;;;;;;;;28.46;43.80;99883.19;4420126;32;20033;-83
2022/07/24 02:01:39;;;;;;;;;;;;;;;28.51;43.82;99875.78;4422238;32;20326;-84
2022/07/24 02:04:06;;;;;;;;;;;;;;;28.59;43.71;99872.69;4426987;32;20496;-83
2022/07/24 02:06:33;;;;;;;;;;;;;;;28.57;44.31;99870.13;4420249;32;20061;-84
2022/07/24 02:08:59;;;;;;;;;;;;;;;28.54;45.00;99875.62;4419926;32;19982;-84
2022/07/24 02:11:27;;;;;;;;;;;;;;;28.65;45.61;99861.66;4420116;32;20008;-84
2022/07/24 02:13:55;;;;;;;;;;;;;;;28.57;46.88;99867.44;4420053;32;20081;-85
2022/07/24 02:16:22;;;;;;;;;;;;;;;28.53;47.37;99849.94;4423685;32;20096;-83
2022/07/24 02:18:49;;;;;;;;;;;;;;;28.54;48.34;99856.97;4082888;32;10004088;-84
2022/07/24 02:21:16;;;;;;;;;;;;;;;28.42;49.06;99863.84;4390105;32;19983;-84
2022/07/24 02:23:43;;;;;;;;;;;;;;;28.48;49.44;99860.84;4397287;32;20343;-84
2022/07/24 02:26:10;;;;;;;;;;;;;;;28.42;49.61;99871.00;4386923;32;19990;-84
2022/07/24 02:28:36;;;;;;;;;;;;;;;28.49;49.05;99864.34;4403635;32;20053;-83
2022/07/24 02:31:03;;;;;;;;;;;;;;;28.44;48.76;99871.78;4407727;32;19996;-84
2022/07/24 02:33:30;;;;;;;;;;;;;;;28.44;48.55;99861.13;4109241;32;10003584;-84
2022/07/24 02:35:57;;;;;;;;;;;;;;;28.26;48.20;99855.84;4404220;32;20033;-83
2022/07/24 02:38:24;;;;;;;;;;;;;;;28.23;47.45;99855.19;4405773;32;20329;-84
2022/07/24 02:40:51;;;;;;;;;;;;;;;28.17;46.16;99851.03;4410704;32;19981;-84
2022/07/24 02:43:18;;;;;;;;;;;;;;;28.25;45.75;99832.00;4408599;32;20032;-84
2022/07/24 02:45:45;;;;;;;;;;;;;;;28.34;45.72;99819.97;4408270;32;19991;-84
2022/07/24 02:48:17;;;;;;;;;;;;;;;28.44;45.29;99810.53;4402510;32;19982;-83
2022/07/24 02:50:44;;;;;;;;;;;;;;;28.47;45.61;99810.34;4402175;32;19982;-86
2022/07/24 02:53:11;;;;;;;;;;;;;;;28.43;45.44;99808.78;4409995;32;19989;-84
2022/07/24 02:55:38;;;;;;;;;;;;;;;28.42;44.16;99802.59;4415253;32;20387;-84
2022/07/24 02:58:04;;;;;;;;;;;;;;;28.46;44.28;99808.63;4415350;32;19994;-84
2022/07/24 03:00:31;;;;;;;;;;;;;;;28.45;44.73;99820.22;4414068;32;20045;-84
2022/07/24 03:02:58;;;;;;;;;;;;;;;28.45;44.80;99806.91;4409524;32;19994;-84
2022/07/24 03:05:25;;;;;;;;;;;;;;;28.44;44.56;99813.19;4411828;32;19978;-84
2022/07/24 03:07:52;;;;;;;;;;;;;;;28.43;45.03;99819.44;4405425;32;20324;-84
2022/07/24 03:10:19;;;;;;;;;;;;;;;28.52;44.78;99824.22;4401306;32;19977;-83
2022/07/24 03:12:46;;;;;;;;;;;;;;;28.40;45.30;99822.28;4401312;32;20024;-84
2022/07/24 03:15:13;;;;;;;;;;;;;;;28.46;45.25;99829.91;4401710;32;20049;-83
2022/07/24 03:17:47;;;;;;;;;;;;;;;28.39;45.44;99828.53;4400057;32;20040;-83
2022/07/24 03:20:14;;;;;;;;;;;;;;;28.33;45.39;99824.41;4399757;32;19986;-83
2022/07/24 03:22:41;;;;;;;;;;;;;;;28.39;45.01;99823.19;4422378;32;20031;-84
2022/07/24 03:25:08;;;;;;;;;;;;;;;28.42;44.40;99823.91;4416811;32;20049;-83
2022/07/24 03:27:34;;;;;;;;;;;;;;;28.22;44.58;99816.19;4416399;32;19997;-83
2022/07/24 03:30:02;;;;;;;;;;;;;;;28.25;44.61;99814.22;4416601;32;20408;-82
2022/07/24 03:32:29;;;;;;;;;;;;;;;28.16;44.36;99806.75;4424935;32;19990;-82
2022/07/24 03:34:56;;;;;;;;;;;;;;;28.35;43.96;99800.38;4416908;32;19992;-83
2022/07/24 03:37:23;;;;;;;;;;;;;;;28.20;43.24;99792.31;4416632;32;19986;-83
2022/07/24 03:39:49;;;;;;;;;;;;;;;28.39;42.83;99807.22;4421795;32;20024;-83
2022/07/24 03:42:16;;;;;;;;;;;;;;;28.27;43.29;99815.00;4423358;32;20000;-82
2022/07/24 03:44:43;;;;;;;;;;;;;;;28.31;43.14;99814.81;4424991;32;19986;-83
2022/07/24 03:47:10;;;;;;;;;;;;;;;28.25;43.37;99830.19;4416630;32;20024;-84
2022/07/24 03:49:37;;;;;;;;;;;;;;;28.21;43.63;99830.47;4418713;32;20087;-84
2022/07/24 03:52:04;;;;;;;;;;;;;;;28.09;43.96;99823.16;4421518;32;19993;-84
2022/07/24 03:54:31;;;;;;;;;;;;;;;28.22;43.91;99824.19;4405303;32;20041;-84
2022/07/24 03:56:58;;;;;;;;;;;;;;;28.28;43.44;99822.03;4416187;32;19997;-85
2022/07/24 03:59:25;;;;;;;;;;;;;;;28.24;43.43;99823.16;4416927;32;19981;-85
2022/07/24 04:01:51;;;;;;;;;;;;;;;28.29;43.54;99836.19;4424274;32;19978;-85
2022/07/24 04:04:18;;;;;;;;;;;;;;;28.37;43.15;99830.44;4402551;32;20005;-83
2022/07/24 04:06:45;;;;;;;;;;;;;;;28.13;43.84;99833.53;4416604;32;20029;-82
2022/07/24 04:09:13;;;;;;;;;;;;;;;27.78;44.59;99839.03;4404925;32;20422;-84
2022/07/24 04:11:40;;;;;;;;;;;;;;;28.09;44.20;99844.47;4416269;32;19981;-84
2022/07/24 04:14:07;;;;;;;;;;;;;;;28.17;44.11;99840.41;4406363;32;20394;-82
2022/07/24 04:16:33;;;;;;;;;;;;;;;28.18;43.95;99835.97;4420613;32;20032;-82
2022/07/24 04:19:01;;;;;;;;;;;;;;;28.36;43.55;99839.34;4418125;32;20000;-83
2022/07/24 04:21:32;;;;;;;;;;;;;;;28.39;43.31;99824.06;4423120;32;20013;-82
2022/07/24 04:23:59;;;;;;;;;;;;;;;28.35;43.44;99824.34;4416333;32;20029;-83
2022/07/24 04:26:26;;;;;;;;;;;;;;;28.29;43.76;99828.19;4416226;32;19974;-82
2022/07/24 04:28:53;;;;;;;;;;;;;;;28.40;43.27;99825.81;4419224;32;20037;-83
2022/07/24 04:31:20;;;;;;;;;;;;;;;28.04;44.57;99828.72;4421970;32;20013;-83
2022/07/24 04:33:47;;;;;;;;;;;;;;;28.06;44.47;99832.19;4416309;32;20005;-82
2022/07/24 04:36:14;;;;;;;;;;;;;;;28.28;44.05;99838.00;4418051;32;19981;-82
2022/07/24 04:38:41;;;;;;;;;;;;;;;28.18;44.41;99847.47;4403699;32;20000;-81
2022/07/24 04:41:08;;;;;;;;;;;;;;;28.07;45.14;99844.53;4424464;32;19981;-82
2022/07/24 04:43:35;;;;;;;;;;;;;;;28.08;44.69;99856.91;4416411;32;20040;-81
2022/07/24 04:46:01;;;;;;;;;;;;;;;27.94;45.28;99859.47;4415799;32;20000;-82
2022/07/24 04:48:28;;;;;;;;;;;;;;;28.02;44.94;99862.56;4424536;32;19970;-82
2022/07/24 04:50:55;;;;;;;;;;;;;;;28.28;44.28;99864.63;4416107;32;20514;-84
2022/07/24 04:53:23;;;;;;;;;;;;;;;28.17;44.64;99877.66;4416218;32;19994;-84
2022/07/24 04:55:50;;;;;;;;;;;;;;;28.12;44.80;99874.44;4415791;32;19978;-86
2022/07/24 04:58:17;;;;;;;;;;;;;;;28.10;44.82;99884.28;4401943;32;20002;-86
2022/07/24 05:00:44;;;;;;;;;;;;;;;28.14;44.69;99885.81;4416146;32;19978;-84
2022/07/24 05:03:11;;;;;;;;;;;;;;;28.08;45.42;99887.97;4422812;32;20019;-83
2022/07/24 05:05:38;;;;;;;;;;;;;;;27.94;45.80;99896.72;4417352;32;19978;-83
2022/07/24 05:08:04;;;;;;;;;;;;;;;28.01;45.88;99892.78;4422722;32;20033;-82
2022/07/24 05:10:32;;;;;;;;;;;;;;;27.86;46.33;99902.47;4419452;32;20013;-83
2022/07/24 05:12:58;;;;;;;;;;;;;;;27.88;46.52;99905.03;4421074;32;19992;-82
2022/07/24 05:15:29;;;;;;;;;;;;;;;28.15;46.07;99906.19;4416320;32;19985;-82
2022/07/24 05:17:56;;;;;;;;;;;;;;;28.28;45.57;99912.53;4415782;32;19985;-81
2022/07/24 05:20:24;;;;;;;;;;;;;;;28.12;46.28;99916.16;4416976;32;20073;-82
2022/07/24 05:22:51;;;;;;;;;;;;;;;28.12;46.07;99917.00;4100453;32;10008807;-81
2022/07/24 05:25:18;;;;;;;;;;;;;;;28.12;46.06;99927.66;4401793;32;20303;-81
2022/07/24 05:27:45;;;;;;;;;;;;;;;28.23;45.73;99927.91;4385817;32;20914;-81
2022/07/24 05:30:12;;;;;;;;;;;;;;;28.12;46.61;99927.66;4421951;32;20013;-81
2022/07/24 05:32:39;;;;;;;;;;;;;;;28.18;46.43;99926.47;4425822;32;20038;-80
2022/07/24 05:35:06;;;;;;;;;;;;;;;28.35;46.18;99933.50;4415717;32;19962;-80
2022/07/24 05:37:33;;;;;;;;;;;;;;;28.39;45.87;99941.22;4425084;32;19986;-80
2022/07/24 05:40:00;;;;;;;;;;;;;;;28.49;45.90;99936.25;4423421;32;19986;-80
2022/07/24 05:42:27;;;;;;;;;;;;;;;28.61;44.77;99935.56;4417249;32;20362;-80
2022/07/24 05:44:53;;;;;;;;;;;;;;;28.28;46.08;99940.97;4421085;32;19981;-81
2022/07/24 05:47:20;;;;;;;;;;;;;;;28.36;46.31;99935.22;4415689;32;19978;-80
2022/07/24 05:49:47;;;;;;;;;;;;;;;28.51;45.53;99935.25;4415108;32;19995;-80
2022/07/24 05:52:14;;;;;;;;;;;;;;;28.49;45.74;99933.59;4411251;32;19982;-80
2022/07/24 05:54:41;;;;;;;;;;;;;;;28.34;46.18;99937.12;4420067;32;19996;-80
2022/07/24 05:57:08;;;;;;;;;;;;;;;28.51;45.21;99934.38;4419095;32;19982;-81
2022/07/24 05:59:35;;;;;;;;;;;;;;;28.36;45.87;99935.22;4419079;32;19993;-81
2022/07/24 06:02:03;;;;;;;;;;;;;;;28.45;45.90;99934.72;4414802;32;19996;-80
2022/07/24 06:04:31;;;;;;;;;;;;;;;28.67;45.04;99940.56;4422015;32;20453;-80
2022/07/24 06:06:58;;;;;;;;;;;;;;;28.40;46.03;99943.00;4416360;32;19978;-80
2022/07/24 06:09:25;;;;;;;;;;;;;;;28.63;45.58;99939.03;4413444;32;20424;-82
2022/07/24 06:11:52;;;;;;;;;;;;;;;28.56;45.62;99937.66;4401434;32;20481;-81
2022/07/24 06:14:20;;;;;;;;;;;;;;;28.63;45.77;99944.34;4419963;32;19981;-81
2022/07/24 06:16:47;;;;;;;;;;;;;;;28.68;45.79;99952.91;4420160;32;20001;-81
2022/07/24 06:19:14;;;;;;;;;;;;;;;28.55;46.27;99948.37;4418242;32;19999;-81
2022/07/24 06:21:41;;;;;;;;;;;;;;;28.62;46.69;99947.97;4421443;32;20004;-82
2022/07/24 06:24:08;;;;;;;;;;;;;;;28.78;45.90;99952.41;4416918;32;19988;-85
2022/07/24 06:26:35;;;;;;;;;;;;;;;29.21;44.84;99953.44;4426748;32;19974;-81
2022/07/24 06:29:22;;;;;;;;;;;;;;;29.09;45.55;99957.69;4396225;32;19973;-81
2022/07/24 06:31:49;;;;;;;;;;;;;;;29.32;44.35;99963.47;4416811;32;20032;-82
2022/07/24 06:34:16;;;;;;;;;;;;;;;29.37;44.17;99966.72;4412500;32;19996;-83
2022/07/24 06:36:43;;;;;;;;;;;;;;;29.58;44.56;99965.44;4393164;32;20385;-81
2022/07/24 06:39:10;;;;;;;;;;;;;;;29.76;43.88;99978.63;4410831;32;20347;-82
2022/07/24 06:41:37;;;;;;;;;;;;;;;30.25;42.42;99971.13;4400361;32;20013;-82
2022/07/24 06:44:05;;;;;;;;;;;;;;;30.16;42.40;99970.84;4409275;32;20008;-82
2022/07/24 06:46:33;;;;;;;;;;;;;;;30.05;42.50;99969.66;4411164;32;20025;-82
2022/07/24 06:49:00;;;;;;;;;;;;;;;30.29;42.09;99971.78;4398709;32;20519;-82
2022/07/24 06:51:27;;;;;;;;;;;;;;;30.42;42.97;99972.72;4415160;32;20286;-82
2022/07/24 06:53:54;;;;;;;;;;;;;;;30.76;41.85;99975.84;4439503;32;19995;-82
2022/07/24 06:56:21;;;;;;;;;;;;;;;30.85;42.06;99969.94;4443792;32;19982;-83
2022/07/24 06:58:48;;;;;;;;;;;;;;;31.14;40.29;99980.50;4441309;32;19993;-82
2022/07/24 07:01:15;;;;;;;;;;;;;;;31.06;41.34;99982.88;4440130;32;19992;-82
2022/07/24 07:03:42;;;;;;;;;;;;;;;30.90;41.71;99983.88;4440737;32;20005;-82
2022/07/24 07:06:09;;;;;;;;;;;;;;;31.03;40.95;99990.12;4439644;32;19980;-82
2022/07/24 07:08:36;;;;;;;;;;;;;;;31.31;39.94;99982.91;4443357;32;20005;-82
2022/07/24 07:11:03;;;;;;;;;;;;;;;31.53;38.85;99986.84;4445564;32;20481;-83
2022/07/24 07:13:30;;;;;;;;;;;;;;;31.70;38.42;99973.13;4440138;32;20445;-83
2022/07/24 07:15:57;;;;;;;;;;;;;;;32.02;36.76;99972.72;4439099;32;19989;-82
2022/07/24 07:18:24;;;;;;;;;;;;;;;31.94;37.57;99986.66;4412168;32;20004;-82
2022/07/24 07:20:53;;;;;;;;;;;;;;;31.66;39.57;99982.34;4418860;32;19994;-81
2022/07/24 07:23:24;;;;;;;;;;;;;;;31.81;38.50;99975.06;4421310;32;20044;-81
2022/07/24 07:25:56;;;;;;;;;;;;;;;32.21;37.32;99983.00;4441833;32;19985;-83
2022/07/24 07:28:24;;;;;;;;;;;;;;;32.46;36.18;99979.44;4406340;32;20083;-83
2022/07/24 07:30:51;;;;;;;;;;;;;;;32.33;38.48;99977.59;4404100;32;19985;-83
2022/07/24 07:33:18;;;;;;;;;;;;;;;32.76;35.95;99989.72;4415829;32;20385;-81
2022/07/24 07:35:45;;;;;;;;;;;;;;;32.73;36.41;99984.56;4441884;32;20042;-81
2022/07/24 07:38:12;;;;;;;;;;;;;;;32.74;36.20;99992.53;4440494;32;20018;-82
2022/07/24 07:40:39;;;;;;;;;;;;;;;33.22;34.85;99987.16;4442305;32;20007;-82
2022/07/24 07:43:06;;;;;;;;;;;;;;;33.37;34.37;99976.22;4446698;32;20015;-81
2022/07/24 07:45:32;;;;;;;;;;;;;;;33.71;33.19;99983.41;4445928;32;20014;-81
2022/07/24 07:47:59;;;;;;;;;;;;;;;33.39;33.16;99985.87;4440109;32;20076;-82
2022/07/24 07:50:30;;;;;;;;;;;;;;;33.31;32.77;99988.25;4417696;32;20042;-80
2022/07/24 07:52:58;;;;;;;;;;;;;;;33.21;33.27;99980.06;4420409;32;19977;-79
2022/07/24 07:55:25;;;;;;;;;;;;;;;33.11;33.04;99984.41;4440334;32;19988;-79
2022/07/24 07:57:52;;;;;;;;;;;;;;;33.15;32.56;99983.22;4405573;32;20007;-80
2022/07/24 08:00:34;;;;;;;;;;;;;;;32.87;34.40;99990.62;4439211;32;20538;-81
2022/07/24 08:03:01;;;;;;;;;;;;;;;32.87;34.97;99982.59;4438367;32;19981;-81
2022/07/24 08:05:28;;;;;;;;;;;;;;;33.20;32.28;99991.78;4431750;32;20727;-82
2022/07/24 08:07:55;;;;;;;;;;;;;;;33.43;31.54;99983.78;4420445;32;20007;-81
2022/07/24 08:10:22;;;;;;;;;;;;;;;33.48;31.76;99977.09;4437968;32;20009;-82
2022/07/24 08:12:49;;;;;;;;;;;;;;;33.21;32.74;99980.06;4417866;32;19973;-82
2022/07/24 08:15:16;;;;;;;;;;;;;;;33.01;32.67;99983.41;4095449;32;10004292;-81
2022/07/24 08:17:44;;;;;;;;;;;;;;;33.12;31.33;99986.13;4380323;32;19979;-82
2022/07/24 08:20:11;;;;;;;;;;;;;;;32.69;33.06;99978.59;4409165;32;20299;-81
2022/07/24 08:22:38;;;;;;;;;;;;;;;32.48;33.84;99981.00;4430752;32;20052;-81
2022/07/24 08:25:05;;;;;;;;;;;;;;;32.29;34.26;99981.47;4445052;32;20027;-81
2022/07/24 08:27:35;;;;;;;;;;;;;;;32.40;33.93;99984.22;4446750;32;20374;-81
2022/07/24 08:30:06;;;;;;;;;;;;;;;32.05;34.67;99988.59;4433076;32;20012;-81
2022/07/24 08:32:33;;;;;;;;;;;;;;;32.15;34.15;99990.47;4440679;32;20033;-80
2022/07/24 08:35:00;;;;;;;;;;;;;;;32.15;34.87;99995.00;4445479;32;20040;-81
2022/07/24 08:37:27;;;;;;;;;;;;;;;32.02;34.31;99991.47;4439581;32;20004;-81
2022/07/24 08:39:54;;;;;;;;;;;;;;;32.05;35.13;99994.78;4439418;32;19988;-80
2022/07/24 08:42:21;;;;;;;;;;;;;;;31.84;35.16;99997.12;4433976;32;20355;-81
2022/07/24 08:44:48;;;;;;;;;;;;;;;31.98;33.85;99992.66;4437216;32;20052;-81
2022/07/24 08:47:15;;;;;;;;;;;;;;;32.13;33.68;99997.78;4435688;32;19997;-82
2022/07/24 08:49:42;;;;;;;;;;;;;;;32.23;33.37;100003.34;4427911;32;19991;-81
2022/07/24 08:52:08;;;;;;;;;;;;;;;32.54;32.80;100006.50;4401396;32;20021;-84
2022/07/24 08:54:37;;;;;;;;;;;;;;;32.02;34.68;100007.53;4397120;32;20020;-81
2022/07/24 08:57:04;;;;;;;;;;;;;;;32.15;34.54;100005.72;4412503;32;20418;-80
2022/07/24 08:59:32;;;;;;;;;;;;;;;32.37;32.70;100005.88;4415951;32;20025;-80
2022/07/24 09:01:59;;;;;;;;;;;;;;;32.42;32.23;100000.22;4412778;32;20382;-79
2022/07/24 09:04:39;;;;;;;;;;;;;;;32.61;31.35;100002.41;4399039;32;19981;-80
2022/07/24 09:07:07;;;;;;;;;;;;;;;32.40;31.86;100002.13;4400132;32;20451;-80
2022/07/24 09:09:35;;;;;;;;;;;;;;;32.24;32.07;100010.41;4399516;32;20785;-79
2022/07/24 09:12:02;;;;;;;;;;;;;;;32.02;32.79;100012.91;4415401;32;20478;-80
2022/07/24 09:14:33;;;;;;;;;;;;;;;32.47;32.49;100006.09;4416055;32;19980;-79
2022/07/24 09:17:08;;;;;;;;;;;;;;;32.53;32.49;100004.81;4402017;32;19978;-79
2022/07/24 09:19:47;;;;;;;;;;;;;;;32.91;31.74;100014.53;4402345;32;19986;-79
2022/07/24 09:22:25;;;;;;;;;;;;;;;32.96;31.12;100017.72;4394097;32;20025;-79
2022/07/24 09:25:04;;;;;;;;;;;;;;;33.04;30.85;100010.84;4386686;32;20366;-80
2022/07/24 09:27:31;;;;;;;;;;;;;;;33.04;31.31;100023.41;4402544;32;19981;-80
2022/07/24 09:29:59;;;;;;;;;;;;;;;33.29;30.27;100017.91;4413380;32;19977;-79
2022/07/24 09:32:26;;;;;;;;;;;;;;;33.75;29.80;100022.44;4415641;32;19995;-78
2022/07/24 09:34:53;;;;;;;;;;;;;;;33.75;29.38;100011.72;4109417;32;10004243;-80
2022/07/24 09:37:20;;;;;;;;;;;;;;;33.72;29.78;100022.69;4400053;32;20009;-80
2022/07/24 09:39:47;;;;;;;;;;;;;;;33.92;28.59;100031.03;4408600;32;20003;-80
2022/07/24 09:42:14;;;;;;;;;;;;;;;33.78;28.94;100022.22;4388517;32;19998;-80
2022/07/24 09:44:41;;;;;;;;;;;;;;;33.74;28.97;100026.13;4406661;32;20356;-79
2022/07/24 09:47:09;;;;;;;;;;;;;;;33.28;30.60;100029.63;4398924;32;20017;-81
2022/07/24 09:49:36;;;;;;;;;;;;;;;33.10;30.86;100025.66;4399495;32;20048;-80
2022/07/24 09:52:16;;;;;;;;;;;;;;;33.52;29.96;100026.06;4118722;32;10004299;-80
2022/07/24 09:54:44;;;;;;;;;;;;;;;33.56;28.19;100022.16;4410704;32;20037;-79
2022/07/24 09:57:22;;;;;;;;;;;;;;;33.46;27.02;100032.72;4387963;32;20027;-79
2022/07/24 09:59:49;;;;;;;;;;;;;;;33.07;29.81;100031.22;4388977;32;20410;-79
2022/07/24 10:02:23;;;;;;;;;;;;;;;33.34;27.33;100029.16;4414189;32;19993;-80
2022/07/24 10:04:50;;;;;;;;;;;;;;;33.11;28.72;100021.97;4403217;32;20484;-82
2022/07/24 10:07:18;;;;;;;;;;;;;;;33.24;28.43;100028.13;4416614;32;20123;-79
2022/07/24 10:09:46;;;;;;;;;;;;;;;33.12;28.60;100023.69;4416518;32;19973;-82
2022/07/24 10:12:14;;;;;;;;;;;;;;;33.13;28.75;100025.41;4411743;32;20269;-81
2022/07/24 10:14:42;;;;;;;;;;;;;;;33.22;29.27;100032.78;4413240;32;20678;-81
2022/07/24 10:17:10;;;;;;;;;;;;;;;33.58;28.68;100019.38;4416817;32;20078;-81
2022/07/24 10:19:50;;;;;;;;;;;;;;;33.29;29.62;100017.91;4416979;32;20417;-80
2022/07/24 10:22:18;;;;;;;;;;;;;;;33.63;27.49;100023.41;4413294;32;20078;-79
2022/07/24 10:24:57;;;;;;;;;;;;;;;33.48;27.88;100021.88;4415233;32;19981;-80
2022/07/24 10:27:25;;;;;;;;;;;;;;;33.17;28.72;100021.53;4411818;32;20037;-80
2022/07/24 10:29:52;;;;;;;;;;;;;;;33.38;26.99;100018.16;4406118;32;20654;-81
2022/07/24 10:32:19;;;;;;;;;;;;;;;33.00;29.72;100030.84;4401915;32;19996;-83
2022/07/24 10:34:48;;;;;;;;;;;;;;;33.32;27.07;100024.88;4097190;32;10004344;-80
2022/07/24 10:37:22;;;;;;;;;;;;;;;33.57;26.54;100029.28;4402576;32;19998;-81
2022/07/24 10:39:49;;;;;;;;;;;;;;;33.46;26.66;100021.13;4406823;32;19986;-80
2022/07/24 10:42:16;;;;;;;;;;;;;;;33.51;27.26;100024.38;4408177;32;20037;-81
2022/07/24 10:44:44;;;;;;;;;;;;;;;33.68;26.37;100026.59;4389279;32;20062;-81
2022/07/24 10:47:16;;;;;;;;;;;;;;;32.98;28.78;100031.91;4401492;32;20040;-79
2022/07/24 10:49:50;;;;;;;;;;;;;;;33.17;28.18;100018.84;4406183;32;19977;-80
2022/07/24 10:52:21;;;;;;;;;;;;;;;33.27;27.23;100022.53;4404271;32;20016;-79
2022/07/24 10:55:08;;;;;;;;;;;;;;;33.35;26.73;100024.66;4403029;32;20000;-81
2022/07/24 10:57:48;;;;;;;;;;;;;;;33.55;27.16;100020.47;4416616;32;19990;-79
2022/07/24 11:00:22;;;;;;;;;;;;;;;33.51;28.22;100010.94;4411565;32;19981;-80
2022/07/24 11:02:59;;;;;;;;;;;;;;;33.95;25.13;100003.91;4399974;32;19992;-80
2022/07/24 11:05:31;;;;;;;;;;;;;;;33.74;26.32;100014.53;4408644;32;19975;-81
2022/07/24 11:08:29;;;;;;;;;;;;;;;33.85;25.88;100011.00;4401612;32;20029;-81
2022/07/24 11:11:07;;;;;;;;;;;;;;;33.69;25.70;100012.19;4401555;32;20314;-79
2022/07/24 11:13:37;;;;;;;;;;;;;;;33.20;26.41;100005.19;4401433;32;20029;-80
2022/07/24 11:16:09;;;;;;;;;;;;;;;33.13;26.57;99998.59;4405058;32;19998;-80
2022/07/24 11:18:37;;;;;;;;;;;;;;;33.08;26.74;99995.38;4405459;32;19978;-80
2022/07/24 11:21:09;;;;;;;;;;;;;;;32.75;27.79;99999.59;4401264;32;19982;-80
2022/07/24 11:23:37;;;;;;;;;;;;;;;33.24;28.27;99995.94;4404858;32;20275;-80
2022/07/24 11:26:22;;;;;;;;;;;;;;;33.65;25.60;99999.97;4408178;32;19983;-81
2022/07/24 11:29:08;;;;;;;;;;;;;;;34.09;25.54;99992.97;4401485;32;20320;-79
2022/07/24 11:31:37;;;;;;;;;;;;;;;34.43;22.73;99990.25;4407854;32;20011;-80
2022/07/24 11:34:04;;;;;;;;;;;;;;;34.41;22.48;99992.22;4405087;32;20001;-80
2022/07/24 11:36:31;;;;;;;;;;;;;;;34.44;23.05;99997.34;4410356;32;19978;-80
2022/07/24 11:39:01;;;;;;;;;;;;;;;34.41;23.48;99978.78;4399585;32;20503;-79
2022/07/24 11:41:28;;;;;;;;;;;;;;;34.54;22.12;99992.13;4409385;32;19978;-80
2022/07/24 11:43:55;;;;;;;;;;;;;;;34.30;23.07;99979.63;4403034;32;20367;-79
2022/07/24 11:46:35;;;;;;;;;;;;;;;34.46;22.89;99984.63;4395819;32;20333;-79
2022/07/24 11:49:06;;;;;;;;;;;;;;;34.67;22.39;99982.91;4401393;32;19985;-79
2022/07/24 11:51:52;;;;;;;;;;;;;;;34.36;22.38;99978.28;4395244;32;20021;-80
2022/07/24 11:54:23;;;;;;;;;;;;;;;34.68;21.40;99981.91;4404770;32;19974;-78
2022/07/24 11:56:50;;;;;;;;;;;;;;;34.75;21.89;99976.91;4407857;32;19990;-79
2022/07/24 11:59:21;;;;;;;;;;;;;;;34.82;22.04;99985.31;4401414;32;19978;-78
2022/07/24 12:01:48;;;;;;;;;;;;;;;34.98;21.66;99980.38;4402685;32;20036;-80
2022/07/24 12:04:19;;;;;;;;;;;;;;;34.88;21.08;99974.06;4407835;32;20019;-80
2022/07/24 12:06:45;;;;;;;;;;;;;;;34.84;21.49;99972.59;4401356;32;20049;-80
2022/07/24 12:09:13;;;;;;;;;;;;;;;35.17;20.73;99969.78;4399103;32;20016;-79
2022/07/24 12:11:40;;;;;;;;;;;;;;;35.16;20.32;99962.72;4401156;32;20036;-80
2022/07/24 12:14:17;;;;;;;;;;;;;;;34.97;20.42;99967.88;4403798;32;20092;-80
2022/07/24 12:16:45;;;;;;;;;;;;;;;34.94;20.37;99970.81;4407885;32;19986;-79
2022/07/24 12:19:12;;;;;;;;;;;;;;;34.95;19.38;99965.34;4399282;32;19985;-79
2022/07/24 12:21:39;;;;;;;;;;;;;;;34.64;20.84;99967.03;4400673;32;20020;-80
2022/07/24 12:24:06;;;;;;;;;;;;;;;34.91;18.46;99968.44;4408936;32;20015;-79
2022/07/24 12:26:49;;;;;;;;;;;;;;;34.93;19.78;99958.38;4399508;32;20398;-79
2022/07/24 12:29:16;;;;;;;;;;;;;;;35.05;20.19;99965.44;4407422;32;20012;-79
2022/07/24 12:31:43;;;;;;;;;;;;;;;35.04;21.43;99947.59;4408428;32;20351;-79
2022/07/24 12:34:10;;;;;;;;;;;;;;;34.90;20.17;99950.56;4400586;32;19978;-79
2022/07/24 12:36:37;;;;;;;;;;;;;;;35.10;19.22;99957.84;4400659;32;20061;-79
2022/07/24 12:39:05;;;;;;;;;;;;;;;34.82;19.61;99956.59;4405245;32;20076;-79
2022/07/24 12:41:35;;;;;;;;;;;;;;;34.97;18.71;99957.13;4410790;32;20372;-79
2022/07/24 12:44:03;;;;;;;;;;;;;;;35.23;17.16;99940.63;4401913;32;20016;-79
2022/07/24 12:46:35;;;;;;;;;;;;;;;34.86;18.99;99954.50;4413019;32;20012;-79
2022/07/24 12:49:14;;;;;;;;;;;;;;;35.03;18.20;99956.63;4415837;32;19986;-79